ADDS METAR Data INFO
IDs: Format: Raw Decoded Include TAF

Data at: 1839 UTC 16 Dec 2017

KABQ 161752Z 18010KT 10SM SCT250 03/M08 A2989 RMK AO2 SLP122 T00281078 10028 21044 58016
KABQ 161652Z 25005KT 10SM SCT250 01/M08 A2992 RMK AO2 SLP140 T00111083
KABQ 161552Z 00000KT 10SM SCT250 M01/M08 A2993 RMK AO2 SLP150 T10061083
KABQ 161452Z 00000KT 10SM FEW250 M03/M09 A2994 RMK AO2 SLP149 T10281094 58009
KABQ 161352Z 15003KT 10SM CLR M03/M09 A2995 RMK AO2 SLP153 T10331094
KABQ 161252Z 11005KT 10SM CLR M03/M10 A2996 RMK AO2 SLP154 T10331100
KABQ 161152Z 14003KT 10SM CLR M03/M10 A2997 RMK AO2 SLP150 T10331100 10000 21044 56024
KABQ 161052Z 13006KT 10SM CLR M04/M11 A3000 RMK AO2 SLP158 T10441106
KABQ 160952Z 11007KT 10SM CLR M02/M09 A3003 RMK AO2 SLP166 T10221094
KABQ 160852Z 12007KT 10SM CLR M03/M10 A3006 RMK AO2 SLP179 T10281100 58017
KABQ 160752Z 13005KT 10SM CLR M02/M10 A3008 RMK AO2 SLP187 T10221100
KABQ 160652Z 12005KT 10SM CLR M02/M11 A3010 RMK AO2 SLP195 T10171106 400891044
KABQ 160552Z 12003KT 10SM CLR 00/M11 A3012 RMK AO2 SLP199 T00001106 10067 21028 56005
KABQ 160452Z 13005KT 10SM CLR M02/M12 A3012 RMK AO2 SLP211 T10171117
KABQ 160352Z 14006KT 10SM CLR M03/M13 A3013 RMK AO2 SLP224 T10281128
KABQ 160252Z 00000KT 10SM CLR 02/M11 A3013 RMK AO2 SLP218 T00221111 56003
KABQ 160152Z 17004KT 10SM CLR 03/M11 A3014 RMK AO2 SLP219 T00281111
KABQ 160052Z 16004KT 10SM CLR 04/M11 A3014 RMK AO2 SLP217 T00391106
KABQ 152352Z 17006KT 10SM CLR 07/M10 A3015 RMK AO2 SLP210 T00721100 10089 20039 56020
KABQ 152252Z 16006KT 10SM CLR 08/M09 A3016 RMK AO2 SLP210 T00831094
KABQ 152152Z 23003KT 10SM CLR 08/M09 A3019 RMK AO2 SLP219 T00831094
KABQ 152052Z 22004KT 10SM CLR 07/M09 A3021 RMK AO2 SLP231 T00721094 56033 $
KABQ 151952Z 23003KT 10SM CLR 06/M09 A3024 RMK AO2 SLP242 T00611094
KABQ 151852Z 25003KT 10SM FEW050 05/M08 A3028 RMK AO2 SLP255 FU FEW050 T00501078
KABQ 151752Z 29003KT 10SM CLR 04/M08 A3033 RMK AO2 SLP274 T00391078 10039 21044 58004
KABQ 151652Z 35003KT 10SM FEW030 02/M08 A3035 RMK AO2 SLP284 FU FEW030 T00171078
KABQ 151552Z 02004KT 10SM FEW030 M02/M08 A3035 RMK AO2 SLP290 FU FEW030 T10171083
KABQ 151452Z 36007KT 10SM FEW030 M03/M08 A3034 RMK AO2 SLP289 FU FEW030 T10331083 51004
KABQ 151352Z 02005KT 10SM CLR M04/M09 A3034 RMK AO2 SLP288 T10391094
KABQ 151252Z 34003KT 10SM CLR M04/M09 A3034 RMK AO2 SLP285 T10391089
KABQ 151152Z 36006KT 10SM CLR M03/M08 A3033 RMK AO2 SLP277 T10281083 10006 21033 50002
KABQ 151052Z 36005KT 10SM CLR M02/M09 A3033 RMK AO2 SLP270 T10221089
KABQ 150952Z 02007KT 10SM CLR M02/M09 A3033 RMK AO2 SLP270 T10221094
KABQ 150852Z 36007KT 10SM CLR M02/M09 A3032 RMK AO2 SLP266 T10171094 53010
KABQ 150752Z 32006KT 10SM CLR M01/M09 A3031 RMK AO2 SLP261 T10061094
KABQ 150652Z 36005KT 10SM CLR 01/M09 A3029 RMK AO2 SLP254 T00061094 400831033